JNU weather

Juneau International Airport
Juneau, Alaska, United States

Public forecast

Using degrees Fahrenheit for public forecast. Weather courtesy of forecast.io.

Current aviation weather report (METAR) for Juneau International Airport

Retrieved 2020/06/01 22:53 UTC (52 minutes ago):

PAJN 012253Z 12016G28KT 10SM -RA FEW009 SCT032 OVC047 10/06 A2984

Aviation forecast (TAF) for Juneau International Airport

Retrieved 2020/06/01 18:39 UTC (5 hours ago):

TAF PAJN 011737Z 0118/0218 11015G20KT 6SM -RA FEW003 SCT015 OVC035 TEMPO 0118/0122 3SM -RA BR BKN030 FM012200 11015G20KT 6SM -RA SCT015 OVC025 TEMPO 0122/0202 4SM -RA BR BKN025 FM020900 11012KT 6SM -SHRA OVC025